sensor_id;sensor_type;location;lat;lon;timestamp;P1;durP1;ratioP1;P2;durP2;ratioP2
20896;SDS011;10608;42.600;23.398;2023-05-16T00:01:41;81.53;;;78.13;;
20896;SDS011;10608;42.600;23.398;2023-05-16T00:04:06;86.83;;;83.17;;
20896;SDS011;10608;42.600;23.398;2023-05-16T00:06:32;83.03;;;79.43;;
20896;SDS011;10608;42.600;23.398;2023-05-16T00:08:58;89.07;;;85.27;;
20896;SDS011;10608;42.600;23.398;2023-05-16T00:11:23;87.20;;;83.30;;
20896;SDS011;10608;42.600;23.398;2023-05-16T00:13:48;97.77;;;93.63;;
20896;SDS011;10608;42.600;23.398;2023-05-16T00:16:13;98.77;;;94.50;;
20896;SDS011;10608;42.600;23.398;2023-05-16T00:18:39;119.77;;;114.57;;
20896;SDS011;10608;42.600;23.398;2023-05-16T00:21:04;110.07;;;105.20;;
20896;SDS011;10608;42.600;23.398;2023-05-16T00:23:30;84.77;;;81.17;;
20896;SDS011;10608;42.600;23.398;2023-05-16T00:25:55;79.13;;;75.63;;
20896;SDS011;10608;42.600;23.398;2023-05-16T00:28:20;67.77;;;64.87;;
20896;SDS011;10608;42.600;23.398;2023-05-16T00:30:46;66.80;;;64.00;;
20896;SDS011;10608;42.600;23.398;2023-05-16T00:33:11;65.10;;;61.93;;
20896;SDS011;10608;42.600;23.398;2023-05-16T00:35:36;69.57;;;66.53;;
20896;SDS011;10608;42.600;23.398;2023-05-16T00:38:01;90.60;;;86.57;;
20896;SDS011;10608;42.600;23.398;2023-05-16T00:40:27;114.57;;;109.57;;
20896;SDS011;10608;42.600;23.398;2023-05-16T00:42:52;123.40;;;118.00;;
20896;SDS011;10608;42.600;23.398;2023-05-16T00:45:17;131.13;;;125.40;;
20896;SDS011;10608;42.600;23.398;2023-05-16T00:47:43;127.90;;;122.37;;
20896;SDS011;10608;42.600;23.398;2023-05-16T00:50:08;117.87;;;112.73;;
20896;SDS011;10608;42.600;23.398;2023-05-16T00:52:33;105.30;;;100.87;;
20896;SDS011;10608;42.600;23.398;2023-05-16T00:55:00;115.67;;;110.73;;
20896;SDS011;10608;42.600;23.398;2023-05-16T00:57:26;96.33;;;92.00;;
20896;SDS011;10608;42.600;23.398;2023-05-16T00:59:51;87.37;;;83.67;;
20896;SDS011;10608;42.600;23.398;2023-05-16T01:02:16;86.97;;;83.17;;
20896;SDS011;10608;42.600;23.398;2023-05-16T01:04:42;117.23;;;112.20;;
20896;SDS011;10608;42.600;23.398;2023-05-16T01:07:07;140.37;;;134.37;;
20896;SDS011;10608;42.600;23.398;2023-05-16T01:09:32;159.07;;;151.67;;
20896;SDS011;10608;42.600;23.398;2023-05-16T01:21:51;129.40;;;123.60;;
20896;SDS011;10608;42.600;23.398;2023-05-16T01:24:26;130.27;;;123.97;;
20896;SDS011;10608;42.600;23.398;2023-05-16T01:26:56;121.53;;;115.70;;
20896;SDS011;10608;42.600;23.398;2023-05-16T01:29:23;123.07;;;117.33;;
20896;SDS011;10608;42.600;23.398;2023-05-16T01:31:48;112.60;;;107.30;;
20896;SDS011;10608;42.600;23.398;2023-05-16T01:34:13;109.33;;;104.27;;
20896;SDS011;10608;42.600;23.398;2023-05-16T01:36:55;103.27;;;98.53;;
20896;SDS011;10608;42.600;23.398;2023-05-16T01:42:06;100.67;;;96.07;;
20896;SDS011;10608;42.600;23.398;2023-05-16T01:44:43;102.40;;;97.77;;
20896;SDS011;10608;42.600;23.398;2023-05-16T01:47:12;101.67;;;97.00;;
20896;SDS011;10608;42.600;23.398;2023-05-16T01:49:40;94.50;;;90.10;;
20896;SDS011;10608;42.600;23.398;2023-05-16T01:52:10;94.67;;;90.40;;
20896;SDS011;10608;42.600;23.398;2023-05-16T01:54:38;101.17;;;96.70;;
20896;SDS011;10608;42.600;23.398;2023-05-16T01:57:05;105.83;;;101.10;;
20896;SDS011;10608;42.600;23.398;2023-05-16T01:59:32;138.67;;;132.47;;
20896;SDS011;10608;42.600;23.398;2023-05-16T02:01:58;132.20;;;126.17;;
20896;SDS011;10608;42.600;23.398;2023-05-16T02:04:23;131.63;;;125.77;;
20896;SDS011;10608;42.600;23.398;2023-05-16T02:06:49;133.50;;;127.57;;
20896;SDS011;10608;42.600;23.398;2023-05-16T02:09:14;124.27;;;118.50;;
20896;SDS011;10608;42.600;23.398;2023-05-16T02:11:40;143.53;;;137.00;;
20896;SDS011;10608;42.600;23.398;2023-05-16T02:14:05;138.20;;;132.03;;
20896;SDS011;10608;42.600;23.398;2023-05-16T02:16:30;156.77;;;149.70;;
20896;SDS011;10608;42.600;23.398;2023-05-16T02:18:56;169.33;;;161.53;;
20896;SDS011;10608;42.600;23.398;2023-05-16T02:21:21;150.17;;;143.53;;
20896;SDS011;10608;42.600;23.398;2023-05-16T02:23:46;150.13;;;143.50;;
20896;SDS011;10608;42.600;23.398;2023-05-16T02:26:11;164.17;;;155.93;;
20896;SDS011;10608;42.600;23.398;2023-05-16T02:28:37;149.57;;;142.97;;
20896;SDS011;10608;42.600;23.398;2023-05-16T02:31:02;149.10;;;142.37;;
20896;SDS011;10608;42.600;23.398;2023-05-16T02:33:28;143.53;;;137.03;;
20896;SDS011;10608;42.600;23.398;2023-05-16T02:35:53;134.90;;;128.97;;
20896;SDS011;10608;42.600;23.398;2023-05-16T02:38:19;143.73;;;137.33;;
20896;SDS011;10608;42.600;23.398;2023-05-16T02:40:48;170.07;;;162.10;;
20896;SDS011;10608;42.600;23.398;2023-05-16T02:43:13;136.97;;;130.30;;
20896;SDS011;10608;42.600;23.398;2023-05-16T02:45:39;134.33;;;127.53;;
20896;SDS011;10608;42.600;23.398;2023-05-16T02:48:04;122.33;;;116.87;;
20896;SDS011;10608;42.600;23.398;2023-05-16T02:50:30;110.83;;;105.83;;
20896;SDS011;10608;42.600;23.398;2023-05-16T02:52:55;117.83;;;112.63;;
20896;SDS011;10608;42.600;23.398;2023-05-16T02:55:20;136.20;;;130.20;;
20896;SDS011;10608;42.600;23.398;2023-05-16T02:57:46;106.97;;;102.20;;
20896;SDS011;10608;42.600;23.398;2023-05-16T03:00:11;105.03;;;100.37;;
20896;SDS011;10608;42.600;23.398;2023-05-16T03:02:36;96.73;;;92.50;;
20896;SDS011;10608;42.600;23.398;2023-05-16T03:05:02;106.60;;;101.90;;
20896;SDS011;10608;42.600;23.398;2023-05-16T03:07:28;97.00;;;92.70;;
20896;SDS011;10608;42.600;23.398;2023-05-16T03:09:53;84.97;;;81.30;;
20896;SDS011;10608;42.600;23.398;2023-05-16T03:12:19;94.37;;;90.20;;
20896;SDS011;10608;42.600;23.398;2023-05-16T03:14:44;84.57;;;80.80;;
20896;SDS011;10608;42.600;23.398;2023-05-16T03:17:09;72.13;;;68.90;;
20896;SDS011;10608;42.600;23.398;2023-05-16T03:19:34;77.17;;;73.67;;
20896;SDS011;10608;42.600;23.398;2023-05-16T03:22:00;79.60;;;76.10;;
20896;SDS011;10608;42.600;23.398;2023-05-16T03:24:25;84.90;;;80.97;;
20896;SDS011;10608;42.600;23.398;2023-05-16T03:26:50;91.50;;;87.37;;
20896;SDS011;10608;42.600;23.398;2023-05-16T03:29:16;81.37;;;77.73;;
20896;SDS011;10608;42.600;23.398;2023-05-16T03:31:41;88.80;;;84.83;;
20896;SDS011;10608;42.600;23.398;2023-05-16T03:34:06;82.63;;;78.83;;
20896;SDS011;10608;42.600;23.398;2023-05-16T03:36:31;80.93;;;77.27;;
20896;SDS011;10608;42.600;23.398;2023-05-16T03:38:57;84.03;;;80.33;;
20896;SDS011;10608;42.600;23.398;2023-05-16T03:41:22;83.37;;;79.67;;
20896;SDS011;10608;42.600;23.398;2023-05-16T03:43:47;88.50;;;84.50;;
20896;SDS011;10608;42.600;23.398;2023-05-16T03:46:13;79.70;;;76.20;;
20896;SDS011;10608;42.600;23.398;2023-05-16T03:48:38;72.67;;;69.43;;
20896;SDS011;10608;42.600;23.398;2023-05-16T03:51:03;87.07;;;83.17;;
20896;SDS011;10608;42.600;23.398;2023-05-16T03:53:29;104.10;;;99.50;;
20896;SDS011;10608;42.600;23.398;2023-05-16T03:55:54;94.47;;;90.27;;
20896;SDS011;10608;42.600;23.398;2023-05-16T03:58:19;94.33;;;90.10;;
20896;SDS011;10608;42.600;23.398;2023-05-16T04:00:44;120.83;;;115.37;;
20896;SDS011;10608;42.600;23.398;2023-05-16T04:03:10;98.43;;;94.03;;
20896;SDS011;10608;42.600;23.398;2023-05-16T04:05:36;102.93;;;98.43;;
20896;SDS011;10608;42.600;23.398;2023-05-16T04:08:01;91.97;;;87.67;;
20896;SDS011;10608;42.600;23.398;2023-05-16T04:10:26;102.77;;;97.87;;
20896;SDS011;10608;42.600;23.398;2023-05-16T04:12:52;105.80;;;101.13;;
20896;SDS011;10608;42.600;23.398;2023-05-16T04:15:17;112.87;;;107.87;;
20896;SDS011;10608;42.600;23.398;2023-05-16T04:17:43;113.63;;;108.50;;
20896;SDS011;10608;42.600;23.398;2023-05-16T04:20:08;114.83;;;109.63;;
20896;SDS011;10608;42.600;23.398;2023-05-16T04:37:19;87.63;;;83.83;;
20896;SDS011;10608;42.600;23.398;2023-05-16T04:39:45;48.03;;;46.03;;
20896;SDS011;10608;42.600;23.398;2023-05-16T04:42:11;49.47;;;47.33;;
20896;SDS011;10608;42.600;23.398;2023-05-16T04:44:36;68.30;;;65.30;;
20896;SDS011;10608;42.600;23.398;2023-05-16T04:47:02;69.57;;;66.40;;
20896;SDS011;10608;42.600;23.398;2023-05-16T04:49:27;55.07;;;52.37;;
20896;SDS011;10608;42.600;23.398;2023-05-16T04:51:53;56.70;;;54.30;;
20896;SDS011;10608;42.600;23.398;2023-05-16T04:54:18;53.73;;;51.43;;
20896;SDS011;10608;42.600;23.398;2023-05-16T04:56:43;49.60;;;47.47;;
20896;SDS011;10608;42.600;23.398;2023-05-16T04:59:09;53.30;;;51.07;;
20896;SDS011;10608;42.600;23.398;2023-05-16T05:01:34;63.47;;;60.73;;
20896;SDS011;10608;42.600;23.398;2023-05-16T05:04:00;67.57;;;64.67;;
20896;SDS011;10608;42.600;23.398;2023-05-16T05:06:26;66.13;;;63.23;;
20896;SDS011;10608;42.600;23.398;2023-05-16T05:08:52;77.23;;;73.83;;
20896;SDS011;10608;42.600;23.398;2023-05-16T05:11:18;73.10;;;69.97;;
20896;SDS011;10608;42.600;23.398;2023-05-16T05:13:44;75.07;;;71.80;;
20896;SDS011;10608;42.600;23.398;2023-05-16T05:16:09;71.73;;;68.63;;
20896;SDS011;10608;42.600;23.398;2023-05-16T05:18:35;66.83;;;63.40;;
20896;SDS011;10608;42.600;23.398;2023-05-16T05:21:00;63.90;;;61.10;;
20896;SDS011;10608;42.600;23.398;2023-05-16T05:23:25;65.90;;;62.93;;
20896;SDS011;10608;42.600;23.398;2023-05-16T05:25:51;63.37;;;60.67;;
20896;SDS011;10608;42.600;23.398;2023-05-16T05:28:16;65.50;;;62.70;;
20896;SDS011;10608;42.600;23.398;2023-05-16T05:30:42;64.53;;;61.80;;
20896;SDS011;10608;42.600;23.398;2023-05-16T05:33:07;70.20;;;67.17;;
20896;SDS011;10608;42.600;23.398;2023-05-16T05:35:32;69.27;;;66.30;;
20896;SDS011;10608;42.600;23.398;2023-05-16T05:37:58;71.03;;;67.97;;
20896;SDS011;10608;42.600;23.398;2023-05-16T05:40:23;65.17;;;62.37;;
20896;SDS011;10608;42.600;23.398;2023-05-16T05:42:49;62.23;;;59.60;;
20896;SDS011;10608;42.600;23.398;2023-05-16T05:45:15;62.67;;;59.87;;
20896;SDS011;10608;42.600;23.398;2023-05-16T05:47:40;69.67;;;66.67;;
20896;SDS011;10608;42.600;23.398;2023-05-16T05:50:06;65.90;;;63.00;;
20896;SDS011;10608;42.600;23.398;2023-05-16T05:52:33;59.87;;;57.30;;
20896;SDS011;10608;42.600;23.398;2023-05-16T05:54:58;58.80;;;56.23;;
20896;SDS011;10608;42.600;23.398;2023-05-16T05:57:24;62.30;;;59.40;;
20896;SDS011;10608;42.600;23.398;2023-05-16T05:59:49;58.40;;;55.87;;
20896;SDS011;10608;42.600;23.398;2023-05-16T06:02:15;56.93;;;54.50;;
20896;SDS011;10608;42.600;23.398;2023-05-16T06:04:41;62.57;;;59.47;;
20896;SDS011;10608;42.600;23.398;2023-05-16T06:07:06;60.50;;;57.87;;
20896;SDS011;10608;42.600;23.398;2023-05-16T06:09:32;57.10;;;54.67;;
20896;SDS011;10608;42.600;23.398;2023-05-16T06:11:57;57.73;;;55.17;;
20896;SDS011;10608;42.600;23.398;2023-05-16T06:14:24;63.80;;;60.90;;
20896;SDS011;10608;42.600;23.398;2023-05-16T06:16:49;58.87;;;56.37;;
20896;SDS011;10608;42.600;23.398;2023-05-16T06:19:14;53.70;;;51.30;;
20896;SDS011;10608;42.600;23.398;2023-05-16T06:21:40;51.20;;;49.03;;
20896;SDS011;10608;42.600;23.398;2023-05-16T06:24:07;55.40;;;52.97;;
20896;SDS011;10608;42.600;23.398;2023-05-16T06:26:32;62.97;;;60.33;;
20896;SDS011;10608;42.600;23.398;2023-05-16T06:28:58;77.50;;;74.20;;
20896;SDS011;10608;42.600;23.398;2023-05-16T06:31:23;86.87;;;83.10;;
20896;SDS011;10608;42.600;23.398;2023-05-16T06:33:49;70.17;;;66.97;;
20896;SDS011;10608;42.600;23.398;2023-05-16T06:36:14;101.57;;;96.77;;
20896;SDS011;10608;42.600;23.398;2023-05-16T06:38:40;88.30;;;84.40;;
20896;SDS011;10608;42.600;23.398;2023-05-16T06:41:05;81.50;;;78.00;;
20896;SDS011;10608;42.600;23.398;2023-05-16T06:43:30;78.50;;;75.00;;
20896;SDS011;10608;42.600;23.398;2023-05-16T06:45:56;66.27;;;63.23;;
20896;SDS011;10608;42.600;23.398;2023-05-16T06:48:21;60.10;;;57.27;;
20896;SDS011;10608;42.600;23.398;2023-05-16T06:50:47;56.00;;;53.47;;
20896;SDS011;10608;42.600;23.398;2023-05-16T06:53:13;59.83;;;57.27;;
20896;SDS011;10608;42.600;23.398;2023-05-16T06:55:39;76.97;;;73.57;;
20896;SDS011;10608;42.600;23.398;2023-05-16T06:58:04;82.70;;;79.20;;
20896;SDS011;10608;42.600;23.398;2023-05-16T07:00:29;62.73;;;59.97;;
20896;SDS011;10608;42.600;23.398;2023-05-16T07:02:55;66.03;;;63.20;;
20896;SDS011;10608;42.600;23.398;2023-05-16T07:05:20;66.23;;;63.37;;
20896;SDS011;10608;42.600;23.398;2023-05-16T07:07:46;64.40;;;61.67;;
20896;SDS011;10608;42.600;23.398;2023-05-16T07:10:13;64.87;;;62.17;;
20896;SDS011;10608;42.600;23.398;2023-05-16T07:12:40;71.00;;;67.87;;
20896;SDS011;10608;42.600;23.398;2023-05-16T07:15:07;74.57;;;71.40;;
20896;SDS011;10608;42.600;23.398;2023-05-16T07:17:32;80.07;;;76.70;;
20896;SDS011;10608;42.600;23.398;2023-05-16T07:19:58;79.00;;;75.70;;
20896;SDS011;10608;42.600;23.398;2023-05-16T07:22:23;78.87;;;75.30;;
20896;SDS011;10608;42.600;23.398;2023-05-16T07:24:49;77.60;;;74.30;;
20896;SDS011;10608;42.600;23.398;2023-05-16T07:27:17;57.23;;;54.83;;
20896;SDS011;10608;42.600;23.398;2023-05-16T07:29:42;58.93;;;56.43;;
20896;SDS011;10608;42.600;23.398;2023-05-16T07:32:08;48.17;;;46.07;;
20896;SDS011;10608;42.600;23.398;2023-05-16T07:34:33;37.10;;;35.57;;
20896;SDS011;10608;42.600;23.398;2023-05-16T07:36:59;39.87;;;38.23;;
20896;SDS011;10608;42.600;23.398;2023-05-16T07:39:24;43.90;;;42.00;;
20896;SDS011;10608;42.600;23.398;2023-05-16T07:41:50;46.70;;;44.57;;
20896;SDS011;10608;42.600;23.398;2023-05-16T07:44:16;48.17;;;46.10;;
20896;SDS011;10608;42.600;23.398;2023-05-16T07:46:41;49.37;;;47.30;;
20896;SDS011;10608;42.600;23.398;2023-05-16T07:49:08;47.93;;;45.93;;
20896;SDS011;10608;42.600;23.398;2023-05-16T07:51:34;50.53;;;48.43;;
20896;SDS011;10608;42.600;23.398;2023-05-16T07:54:00;48.70;;;46.70;;
20896;SDS011;10608;42.600;23.398;2023-05-16T07:56:26;69.50;;;66.50;;
20896;SDS011;10608;42.600;23.398;2023-05-16T07:58:51;37.47;;;35.90;;
20896;SDS011;10608;42.600;23.398;2023-05-16T08:01:17;38.17;;;36.60;;
20896;SDS011;10608;42.600;23.398;2023-05-16T08:03:43;27.90;;;26.77;;
20896;SDS011;10608;42.600;23.398;2023-05-16T08:06:08;27.57;;;26.37;;
20896;SDS011;10608;42.600;23.398;2023-05-16T08:08:34;29.67;;;28.37;;
20896;SDS011;10608;42.600;23.398;2023-05-16T08:10:59;32.03;;;30.70;;
20896;SDS011;10608;42.600;23.398;2023-05-16T08:13:25;21.10;;;20.23;;
20896;SDS011;10608;42.600;23.398;2023-05-16T08:15:50;26.03;;;24.73;;
20896;SDS011;10608;42.600;23.398;2023-05-16T08:18:16;29.93;;;28.63;;
20896;SDS011;10608;42.600;23.398;2023-05-16T08:20:41;56.97;;;54.57;;
20896;SDS011;10608;42.600;23.398;2023-05-16T08:23:07;49.17;;;47.07;;
20896;SDS011;10608;42.600;23.398;2023-05-16T08:25:33;47.67;;;45.63;;
20896;SDS011;10608;42.600;23.398;2023-05-16T08:27:59;42.97;;;41.17;;
20896;SDS011;10608;42.600;23.398;2023-05-16T08:30:26;40.10;;;38.47;;
20896;SDS011;10608;42.600;23.398;2023-05-16T08:32:51;27.17;;;25.80;;
20896;SDS011;10608;42.600;23.398;2023-05-16T08:35:17;41.40;;;39.67;;
20896;SDS011;10608;42.600;23.398;2023-05-16T08:37:42;46.47;;;44.47;;
20896;SDS011;10608;42.600;23.398;2023-05-16T08:40:08;44.80;;;42.90;;
20896;SDS011;10608;42.600;23.398;2023-05-16T08:42:34;34.20;;;32.80;;
20896;SDS011;10608;42.600;23.398;2023-05-16T08:45:01;29.07;;;27.87;;
20896;SDS011;10608;42.600;23.398;2023-05-16T08:47:29;53.07;;;50.60;;
20896;SDS011;10608;42.600;23.398;2023-05-16T08:49:56;27.03;;;25.93;;
20896;SDS011;10608;42.600;23.398;2023-05-16T08:52:22;72.47;;;69.40;;
20896;SDS011;10608;42.600;23.398;2023-05-16T08:54:52;51.33;;;49.17;;
20896;SDS011;10608;42.600;23.398;2023-05-16T08:57:18;53.70;;;51.40;;
20896;SDS011;10608;42.600;23.398;2023-05-16T08:59:44;44.13;;;42.23;;
20896;SDS011;10608;42.600;23.398;2023-05-16T09:02:10;45.93;;;43.90;;
20896;SDS011;10608;42.600;23.398;2023-05-16T09:04:36;39.27;;;37.57;;
20896;SDS011;10608;42.600;23.398;2023-05-16T09:07:02;57.60;;;55.10;;
20896;SDS011;10608;42.600;23.398;2023-05-16T09:09:28;55.17;;;52.77;;
20896;SDS011;10608;42.600;23.398;2023-05-16T09:11:54;54.83;;;52.43;;
20896;SDS011;10608;42.600;23.398;2023-05-16T09:14:20;54.70;;;52.07;;
20896;SDS011;10608;42.600;23.398;2023-05-16T09:16:54;58.10;;;55.50;;
20896;SDS011;10608;42.600;23.398;2023-05-16T09:19:31;59.37;;;56.93;;
20896;SDS011;10608;42.600;23.398;2023-05-16T09:22:02;56.97;;;54.23;;
20896;SDS011;10608;42.600;23.398;2023-05-16T09:24:27;57.33;;;54.90;;
20896;SDS011;10608;42.600;23.398;2023-05-16T09:26:53;60.40;;;57.83;;
20896;SDS011;10608;42.600;23.398;2023-05-16T09:29:18;73.30;;;70.00;;
20896;SDS011;10608;42.600;23.398;2023-05-16T09:31:44;56.97;;;54.57;;
20896;SDS011;10608;42.600;23.398;2023-05-16T09:34:09;59.23;;;56.73;;
20896;SDS011;10608;42.600;23.398;2023-05-16T09:36:37;57.37;;;54.97;;
20896;SDS011;10608;42.600;23.398;2023-05-16T09:39:05;74.40;;;71.23;;
20896;SDS011;10608;42.600;23.398;2023-05-16T09:41:34;59.57;;;57.07;;
20896;SDS011;10608;42.600;23.398;2023-05-16T09:44:03;70.80;;;67.77;;
20896;SDS011;10608;42.600;23.398;2023-05-16T09:46:33;71.83;;;68.83;;
20896;SDS011;10608;42.600;23.398;2023-05-16T09:48:59;65.67;;;62.77;;
20896;SDS011;10608;42.600;23.398;2023-05-16T09:51:25;44.33;;;42.43;;
20896;SDS011;10608;42.600;23.398;2023-05-16T09:53:50;35.17;;;33.57;;
20896;SDS011;10608;42.600;23.398;2023-05-16T09:56:16;37.60;;;36.00;;
20896;SDS011;10608;42.600;23.398;2023-05-16T09:58:42;38.67;;;36.80;;
20896;SDS011;10608;42.600;23.398;2023-05-16T10:01:11;42.77;;;40.97;;
20896;SDS011;10608;42.600;23.398;2023-05-16T10:03:37;33.67;;;32.20;;
20896;SDS011;10608;42.600;23.398;2023-05-16T10:06:04;50.67;;;48.27;;
20896;SDS011;10608;42.600;23.398;2023-05-16T10:08:32;53.03;;;50.33;;
20896;SDS011;10608;42.600;23.398;2023-05-16T10:11:02;54.43;;;52.10;;
20896;SDS011;10608;42.600;23.398;2023-05-16T10:13:30;35.27;;;33.77;;
20896;SDS011;10608;42.600;23.398;2023-05-16T10:15:58;43.70;;;41.87;;
20896;SDS011;10608;42.600;23.398;2023-05-16T10:18:33;50.80;;;48.63;;
20896;SDS011;10608;42.600;23.398;2023-05-16T10:21:07;42.70;;;40.70;;
20896;SDS011;10608;42.600;23.398;2023-05-16T10:23:35;45.10;;;43.13;;
20896;SDS011;10608;42.600;23.398;2023-05-16T10:26:02;41.17;;;39.30;;
20896;SDS011;10608;42.600;23.398;2023-05-16T10:28:30;33.87;;;32.47;;
20896;SDS011;10608;42.600;23.398;2023-05-16T10:30:55;32.00;;;30.63;;
20896;SDS011;10608;42.600;23.398;2023-05-16T10:33:21;46.37;;;43.27;;
20896;SDS011;10608;42.600;23.398;2023-05-16T10:35:47;55.40;;;53.10;;
20896;SDS011;10608;42.600;23.398;2023-05-16T10:38:16;49.73;;;47.53;;
20896;SDS011;10608;42.600;23.398;2023-05-16T10:40:43;63.10;;;60.30;;
20896;SDS011;10608;42.600;23.398;2023-05-16T10:43:09;34.20;;;32.77;;
20896;SDS011;10608;42.600;23.398;2023-05-16T10:45:38;26.40;;;25.23;;
20896;SDS011;10608;42.600;23.398;2023-05-16T10:48:05;42.20;;;40.40;;
20896;SDS011;10608;42.600;23.398;2023-05-16T10:50:34;51.37;;;49.17;;
20896;SDS011;10608;42.600;23.398;2023-05-16T10:53:12;41.03;;;38.97;;
20896;SDS011;10608;42.600;23.398;2023-05-16T10:55:49;39.97;;;38.30;;
20896;SDS011;10608;42.600;23.398;2023-05-16T11:06:24;17.10;;;16.30;;
20896;SDS011;10608;42.600;23.398;2023-05-16T11:09:06;17.73;;;16.93;;
20896;SDS011;10608;42.600;23.398;2023-05-16T11:14:23;16.90;;;16.10;;
20896;SDS011;10608;42.600;23.398;2023-05-16T11:19:47;16.20;;;15.40;;
20896;SDS011;10608;42.600;23.398;2023-05-16T11:22:29;19.47;;;18.57;;
20896;SDS011;10608;42.600;23.398;2023-05-16T11:27:30;27.37;;;26.13;;
20896;SDS011;10608;42.600;23.398;2023-05-16T11:29:58;55.80;;;53.23;;
20896;SDS011;10608;42.600;23.398;2023-05-16T11:32:35;64.47;;;61.57;;
20896;SDS011;10608;42.600;23.398;2023-05-16T11:35:02;35.93;;;34.40;;
20896;SDS011;10608;42.600;23.398;2023-05-16T11:37:29;47.20;;;45.13;;
20896;SDS011;10608;42.600;23.398;2023-05-16T11:40:01;36.10;;;34.43;;
20896;SDS011;10608;42.600;23.398;2023-05-16T11:42:33;22.80;;;21.63;;
20896;SDS011;10608;42.600;23.398;2023-05-16T11:47:52;27.30;;;26.00;;
20896;SDS011;10608;42.600;23.398;2023-05-16T11:50:18;27.53;;;26.33;;
20896;SDS011;10608;42.600;23.398;2023-05-16T11:52:51;25.60;;;24.43;;
20896;SDS011;10608;42.600;23.398;2023-05-16T11:55:21;27.93;;;26.73;;
20896;SDS011;10608;42.600;23.398;2023-05-16T11:57:52;28.60;;;27.27;;
20896;SDS011;10608;42.600;23.398;2023-05-16T12:00:21;24.90;;;23.83;;
20896;SDS011;10608;42.600;23.398;2023-05-16T12:02:49;25.03;;;23.80;;
20896;SDS011;10608;42.600;23.398;2023-05-16T12:05:15;57.60;;;55.20;;
20896;SDS011;10608;42.600;23.398;2023-05-16T12:07:42;62.43;;;59.77;;
20896;SDS011;10608;42.600;23.398;2023-05-16T12:10:09;70.53;;;67.63;;
20896;SDS011;10608;42.600;23.398;2023-05-16T12:12:37;53.20;;;50.97;;
20896;SDS011;10608;42.600;23.398;2023-05-16T12:15:05;61.43;;;58.83;;
20896;SDS011;10608;42.600;23.398;2023-05-16T12:17:35;49.80;;;47.70;;
20896;SDS011;10608;42.600;23.398;2023-05-16T12:20:02;76.03;;;72.87;;
20896;SDS011;10608;42.600;23.398;2023-05-16T12:22:34;67.87;;;64.93;;
20896;SDS011;10608;42.600;23.398;2023-05-16T12:27:44;44.13;;;42.23;;
20896;SDS011;10608;42.600;23.398;2023-05-16T12:30:10;58.83;;;56.13;;
20896;SDS011;10608;42.600;23.398;2023-05-16T12:32:37;53.37;;;51.17;;
20896;SDS011;10608;42.600;23.398;2023-05-16T12:35:02;49.17;;;47.07;;
20896;SDS011;10608;42.600;23.398;2023-05-16T12:37:28;39.67;;;37.67;;
20896;SDS011;10608;42.600;23.398;2023-05-16T12:39:58;28.97;;;27.77;;
20896;SDS011;10608;42.600;23.398;2023-05-16T12:42:25;43.20;;;41.40;;
20896;SDS011;10608;42.600;23.398;2023-05-16T12:44:54;37.77;;;36.17;;
20896;SDS011;10608;42.600;23.398;2023-05-16T12:47:20;32.23;;;30.83;;
20896;SDS011;10608;42.600;23.398;2023-05-16T12:49:46;36.13;;;34.63;;
20896;SDS011;10608;42.600;23.398;2023-05-16T12:52:18;37.43;;;35.73;;
20896;SDS011;10608;42.600;23.398;2023-05-16T12:54:45;42.30;;;40.43;;
20896;SDS011;10608;42.600;23.398;2023-05-16T12:57:12;70.93;;;67.93;;
20896;SDS011;10608;42.600;23.398;2023-05-16T12:59:38;89.20;;;85.43;;
20896;SDS011;10608;42.600;23.398;2023-05-16T13:02:03;178.80;;;171.40;;
20896;SDS011;10608;42.600;23.398;2023-05-16T13:04:29;127.80;;;122.53;;
20896;SDS011;10608;42.600;23.398;2023-05-16T13:06:54;75.13;;;71.77;;
20896;SDS011;10608;42.600;23.398;2023-05-16T13:09:21;52.97;;;50.77;;
20896;SDS011;10608;42.600;23.398;2023-05-16T13:11:47;61.03;;;58.47;;
20896;SDS011;10608;42.600;23.398;2023-05-16T13:14:12;74.33;;;71.23;;
20896;SDS011;10608;42.600;23.398;2023-05-16T13:16:38;83.30;;;79.73;;
20896;SDS011;10608;42.600;23.398;2023-05-16T13:19:03;31.33;;;29.97;;
20896;SDS011;10608;42.600;23.398;2023-05-16T13:21:29;18.63;;;17.83;;
20896;SDS011;10608;42.600;23.398;2023-05-16T13:23:56;27.40;;;26.20;;
20896;SDS011;10608;42.600;23.398;2023-05-16T13:26:22;44.07;;;42.10;;
20896;SDS011;10608;42.600;23.398;2023-05-16T13:28:48;46.67;;;44.67;;
20896;SDS011;10608;42.600;23.398;2023-05-16T13:31:17;50.20;;;48.03;;
20896;SDS011;10608;42.600;23.398;2023-05-16T13:33:42;49.80;;;47.63;;
20896;SDS011;10608;42.600;23.398;2023-05-16T13:36:08;43.97;;;42.10;;
20896;SDS011;10608;42.600;23.398;2023-05-16T13:38:33;43.77;;;41.97;;
20896;SDS011;10608;42.600;23.398;2023-05-16T13:40:58;46.03;;;44.13;;
20896;SDS011;10608;42.600;23.398;2023-05-16T13:43:24;49.77;;;47.57;;
20896;SDS011;10608;42.600;23.398;2023-05-16T13:45:49;35.63;;;34.10;;
20896;SDS011;10608;42.600;23.398;2023-05-16T13:48:15;29.27;;;28.07;;
20896;SDS011;10608;42.600;23.398;2023-05-16T13:50:40;19.50;;;18.60;;
20896;SDS011;10608;42.600;23.398;2023-05-16T13:53:06;21.43;;;20.43;;
20896;SDS011;10608;42.600;23.398;2023-05-16T13:55:32;44.07;;;42.23;;
20896;SDS011;10608;42.600;23.398;2023-05-16T13:57:57;62.17;;;59.53;;
20896;SDS011;10608;42.600;23.398;2023-05-16T14:00:24;94.53;;;90.53;;
20896;SDS011;10608;42.600;23.398;2023-05-16T14:02:51;35.13;;;33.63;;
20896;SDS011;10608;42.600;23.398;2023-05-16T14:05:16;112.20;;;107.50;;
20896;SDS011;10608;42.600;23.398;2023-05-16T14:07:42;25.17;;;24.07;;
20896;SDS011;10608;42.600;23.398;2023-05-16T14:10:07;26.83;;;25.43;;
20896;SDS011;10608;42.600;23.398;2023-05-16T14:12:33;43.00;;;41.20;;
20896;SDS011;10608;42.600;23.398;2023-05-16T14:14:59;53.97;;;51.67;;
20896;SDS011;10608;42.600;23.398;2023-05-16T14:17:24;43.97;;;42.07;;
20896;SDS011;10608;42.600;23.398;2023-05-16T14:19:50;21.60;;;20.70;;
20896;SDS011;10608;42.600;23.398;2023-05-16T14:22:17;30.87;;;29.47;;
20896;SDS011;10608;42.600;23.398;2023-05-16T14:24:43;18.80;;;17.97;;
20896;SDS011;10608;42.600;23.398;2023-05-16T14:27:08;17.37;;;16.37;;
20896;SDS011;10608;42.600;23.398;2023-05-16T14:29:34;16.20;;;15.13;;
20896;SDS011;10608;42.600;23.398;2023-05-16T14:31:59;18.63;;;17.73;;
20896;SDS011;10608;42.600;23.398;2023-05-16T14:34:24;87.60;;;83.87;;
20896;SDS011;10608;42.600;23.398;2023-05-16T14:36:50;33.67;;;32.07;;
20896;SDS011;10608;42.600;23.398;2023-05-16T14:39:15;44.40;;;42.37;;
20896;SDS011;10608;42.600;23.398;2023-05-16T14:41:41;19.87;;;18.83;;
20896;SDS011;10608;42.600;23.398;2023-05-16T14:44:06;33.07;;;31.53;;
20896;SDS011;10608;42.600;23.398;2023-05-16T14:46:32;37.23;;;35.43;;
20896;SDS011;10608;42.600;23.398;2023-05-16T14:48:57;101.30;;;96.80;;